Terminal Aerodrome Forecast
Issued by NWS

Home | Current Version | Previous Version | Text Only | Print | Product List | Glossary On
Versions: 1 2 3 4 5 6 7 8 9 10 11 12 13 14 15 16
000
FTUS43 KAPX 211120
TAFAPN
TAF
KAPN 211120Z 2112/2212 21006KT P6SM -RA SCT022 OVC040
      TEMPO 2112/2114 BKN022 OVC035
     FM211400 22009KT P6SM OVC040
     FM211700 23009KT 6SM -SHRA SCT025 BKN040
     FM220100 25005KT P6SM OVC050
     FM220700 27004KT P6SM -RASN OVC025=

USA.gov is the U.S. government's official web portal to all federal, state and local government web resources and services.